LKTB/BRQ METAR and TAF weather

Enter ICAO airport designator
Station Type Date Time Source
LKTB METAR 2021/09/25 13:00 UTC NOAA

LKTB 251300Z 17005KT 110V230 CAVOK 23/11 Q1018 NOSIG


Station Type Date Time Source
LKTB Decoded METAR 2021/09/25 13:00 UTC NOAA

Brno / Turany, Czech Republic (LKTB) 49-09N 016-42E 246M
Sep 25, 2021 - 09:00 AM EDT / 2021.09.25 1300 UTC
Wind: from the S (170 degrees) at 6 MPH (5 KT) (direction variable):0
Visibility: greater than 7 mile(s):0
Temperature: 73 F (23 C)
Dew Point: 51 F (11 C)
Relative Humidity: 46%
Pressure (altimeter): 30.06 in. Hg (1018 hPa)
ob: LKTB 251300Z 17005KT 110V230 CAVOK 23/11 Q1018 NOSIG
cycle: 13

Station Type Date Time Source
LKTB TAF 2021/09/25 12:15 UTC NOAA

TAF LKTB 251100Z 2512/2618 22006KT CAVOK
BECMG 2518/2520 03004KT
TEMPO 2600/2606 VRB02KT 4000 BR SCT003
BECMG 2606/2608 16006KT

Example: see airport list